sensor_id;sensor_type;location;lat;lon;timestamp;pressure;altitude;pressure_sealevel;temperature;humidity
11395;BME280;5753;54.402;10.220;2023-04-23T00:00:29;100546.75;;;26.28;40.53
11395;BME280;5753;54.402;10.220;2023-04-23T00:02:57;100541.31;;;27.26;39.01
11395;BME280;5753;54.402;10.220;2023-04-23T00:05:26;100548.75;;;27.65;38.17
11395;BME280;5753;54.402;10.220;2023-04-23T00:07:53;100543.97;;;27.56;38.54
11395;BME280;5753;54.402;10.220;2023-04-23T00:10:19;100535.22;;;27.70;38.14
11395;BME280;5753;54.402;10.220;2023-04-23T00:12:45;100531.34;;;27.61;38.17
11395;BME280;5753;54.402;10.220;2023-04-23T00:15:12;100530.91;;;27.23;38.86
11395;BME280;5753;54.402;10.220;2023-04-23T00:17:39;100524.91;;;27.35;38.68
11395;BME280;5753;54.402;10.220;2023-04-23T00:20:05;100520.06;;;27.57;38.29
11395;BME280;5753;54.402;10.220;2023-04-23T00:22:32;100525.00;;;27.64;38.23
11395;BME280;5753;54.402;10.220;2023-04-23T00:24:58;100518.22;;;26.82;39.60
11395;BME280;5753;54.402;10.220;2023-04-23T00:27:24;100517.97;;;27.18;38.85
11395;BME280;5753;54.402;10.220;2023-04-23T00:29:50;100519.59;;;26.89;39.68
11395;BME280;5753;54.402;10.220;2023-04-23T00:32:16;100511.56;;;27.37;38.94
11395;BME280;5753;54.402;10.220;2023-04-23T00:34:43;100515.84;;;27.39;38.96
11395;BME280;5753;54.402;10.220;2023-04-23T00:37:09;100517.22;;;26.85;39.86
11395;BME280;5753;54.402;10.220;2023-04-23T00:39:35;100513.88;;;26.81;39.76
11395;BME280;5753;54.402;10.220;2023-04-23T00:42:03;100516.38;;;26.53;40.53
11395;BME280;5753;54.402;10.220;2023-04-23T00:44:39;100512.53;;;26.74;40.38
11395;BME280;5753;54.402;10.220;2023-04-23T00:47:06;100508.13;;;26.59;40.56
11395;BME280;5753;54.402;10.220;2023-04-23T00:49:34;100510.47;;;26.79;40.09
11395;BME280;5753;54.402;10.220;2023-04-23T00:52:00;100508.94;;;27.07;39.54
11395;BME280;5753;54.402;10.220;2023-04-23T00:54:26;100512.72;;;27.03;39.76
11395;BME280;5753;54.402;10.220;2023-04-23T00:56:56;100510.16;;;27.01;39.77
11395;BME280;5753;54.402;10.220;2023-04-23T00:59:24;100505.28;;;24.75;44.56
11395;BME280;5753;54.402;10.220;2023-04-23T01:01:51;100506.31;;;25.43;43.23
11395;BME280;5753;54.402;10.220;2023-04-23T01:04:18;100506.59;;;26.06;42.18
11395;BME280;5753;54.402;10.220;2023-04-23T01:06:46;100500.25;;;25.06;44.36
11395;BME280;5753;54.402;10.220;2023-04-23T01:09:13;100493.84;;;25.12;44.41
11395;BME280;5753;54.402;10.220;2023-04-23T01:11:41;100503.28;;;25.51;43.84
11395;BME280;5753;54.402;10.220;2023-04-23T01:14:08;100490.97;;;26.01;42.83
11395;BME280;5753;54.402;10.220;2023-04-23T01:16:36;100505.22;;;25.82;43.12
11395;BME280;5753;54.402;10.220;2023-04-23T01:19:05;100504.78;;;26.55;41.73
11395;BME280;5753;54.402;10.220;2023-04-23T01:21:32;100503.25;;;26.02;42.81
11395;BME280;5753;54.402;10.220;2023-04-23T01:23:59;100506.19;;;26.29;42.39
11395;BME280;5753;54.402;10.220;2023-04-23T01:26:25;100510.84;;;25.76;43.24
11395;BME280;5753;54.402;10.220;2023-04-23T01:28:52;100499.63;;;25.88;43.21
11395;BME280;5753;54.402;10.220;2023-04-23T01:31:19;100502.44;;;25.16;45.41
11395;BME280;5753;54.402;10.220;2023-04-23T01:33:46;100499.47;;;25.91;43.90
11395;BME280;5753;54.402;10.220;2023-04-23T01:36:12;100509.75;;;26.28;43.25
11395;BME280;5753;54.402;10.220;2023-04-23T01:38:39;100509.56;;;25.48;44.79
11395;BME280;5753;54.402;10.220;2023-04-23T01:41:05;100504.53;;;25.26;45.79
11395;BME280;5753;54.402;10.220;2023-04-23T01:43:32;100510.28;;;24.43;47.29
11395;BME280;5753;54.402;10.220;2023-04-23T01:45:58;100499.47;;;24.49;47.44
11395;BME280;5753;54.402;10.220;2023-04-23T01:48:25;100509.59;;;24.40;48.03
11395;BME280;5753;54.402;10.220;2023-04-23T01:50:51;100502.41;;;24.98;46.48
11395;BME280;5753;54.402;10.220;2023-04-23T01:53:18;100494.25;;;24.67;47.24
11395;BME280;5753;54.402;10.220;2023-04-23T01:55:48;100498.16;;;24.58;47.28
11395;BME280;5753;54.402;10.220;2023-04-23T01:58:15;100499.69;;;25.00;46.55
11395;BME280;5753;54.402;10.220;2023-04-23T02:00:41;100495.13;;;25.03;45.95
11395;BME280;5753;54.402;10.220;2023-04-23T02:03:07;100501.97;;;23.54;49.40
11395;BME280;5753;54.402;10.220;2023-04-23T02:05:34;100509.84;;;24.15;47.67
11395;BME280;5753;54.402;10.220;2023-04-23T02:08:01;100513.50;;;23.92;47.85
11395;BME280;5753;54.402;10.220;2023-04-23T02:10:28;100508.97;;;23.55;47.47
11395;BME280;5753;54.402;10.220;2023-04-23T02:12:56;100517.84;;;23.10;48.71
11395;BME280;5753;54.402;10.220;2023-04-23T02:15:22;100513.78;;;23.66;47.14
11395;BME280;5753;54.402;10.220;2023-04-23T02:17:48;100527.22;;;23.38;47.76
11395;BME280;5753;54.402;10.220;2023-04-23T02:20:17;100533.09;;;22.80;48.93
11395;BME280;5753;54.402;10.220;2023-04-23T02:22:44;100526.47;;;23.56;47.46
11395;BME280;5753;54.402;10.220;2023-04-23T02:25:11;100534.53;;;23.31;48.09
11395;BME280;5753;54.402;10.220;2023-04-23T02:27:40;100536.03;;;23.15;48.43
11395;BME280;5753;54.402;10.220;2023-04-23T02:30:07;100543.44;;;23.90;46.82
11395;BME280;5753;54.402;10.220;2023-04-23T02:32:34;100551.88;;;23.13;48.17
11395;BME280;5753;54.402;10.220;2023-04-23T02:35:02;100548.88;;;23.44;47.21
11395;BME280;5753;54.402;10.220;2023-04-23T02:37:29;100553.56;;;21.23;51.81
11395;BME280;5753;54.402;10.220;2023-04-23T02:39:55;100553.75;;;21.94;49.95
11395;BME280;5753;54.402;10.220;2023-04-23T02:42:21;100551.06;;;22.21;49.23
11395;BME280;5753;54.402;10.220;2023-04-23T02:44:47;100557.63;;;21.84;49.36
11395;BME280;5753;54.402;10.220;2023-04-23T02:47:13;100564.47;;;21.37;50.74
11395;BME280;5753;54.402;10.220;2023-04-23T02:49:39;100564.56;;;21.85;49.35
11395;BME280;5753;54.402;10.220;2023-04-23T02:52:05;100565.81;;;20.94;51.24
11395;BME280;5753;54.402;10.220;2023-04-23T02:54:31;100573.81;;;21.46;50.42
11395;BME280;5753;54.402;10.220;2023-04-23T02:56:57;100574.06;;;21.63;49.87
11395;BME280;5753;54.402;10.220;2023-04-23T02:59:24;100579.06;;;20.60;51.39
11395;BME280;5753;54.402;10.220;2023-04-23T03:01:50;100575.88;;;20.79;50.82
11395;BME280;5753;54.402;10.220;2023-04-23T03:04:17;100578.19;;;20.29;52.41
11395;BME280;5753;54.402;10.220;2023-04-23T03:06:43;100577.09;;;21.24;49.98
11395;BME280;5753;54.402;10.220;2023-04-23T03:09:09;100589.03;;;20.48;51.57
11395;BME280;5753;54.402;10.220;2023-04-23T03:11:35;100586.94;;;20.28;51.64
11395;BME280;5753;54.402;10.220;2023-04-23T03:14:01;100579.88;;;20.92;50.39
11395;BME280;5753;54.402;10.220;2023-04-23T03:16:29;100594.53;;;20.38;51.93
11395;BME280;5753;54.402;10.220;2023-04-23T03:18:59;100595.56;;;20.00;52.29
11395;BME280;5753;54.402;10.220;2023-04-23T03:21:26;100610.09;;;20.45;51.50
11395;BME280;5753;54.402;10.220;2023-04-23T03:23:52;100602.06;;;20.51;51.16
11395;BME280;5753;54.402;10.220;2023-04-23T03:26:18;100600.22;;;20.22;51.77
11395;BME280;5753;54.402;10.220;2023-04-23T03:28:44;100606.59;;;20.73;50.55
11395;BME280;5753;54.402;10.220;2023-04-23T03:31:10;100599.03;;;20.64;50.25
11395;BME280;5753;54.402;10.220;2023-04-23T03:33:36;100594.81;;;20.88;50.55
11395;BME280;5753;54.402;10.220;2023-04-23T03:36:03;100607.88;;;20.28;51.42
11395;BME280;5753;54.402;10.220;2023-04-23T03:38:29;100599.13;;;20.29;51.54
11395;BME280;5753;54.402;10.220;2023-04-23T03:40:55;100599.91;;;20.01;51.74
11395;BME280;5753;54.402;10.220;2023-04-23T03:43:21;100607.75;;;20.34;51.50
11395;BME280;5753;54.402;10.220;2023-04-23T03:45:47;100606.25;;;19.93;51.92
11395;BME280;5753;54.402;10.220;2023-04-23T03:48:13;100614.44;;;19.43;52.81
11395;BME280;5753;54.402;10.220;2023-04-23T03:50:40;100608.56;;;18.53;55.61
11395;BME280;5753;54.402;10.220;2023-04-23T03:53:06;100606.25;;;20.24;51.27
11395;BME280;5753;54.402;10.220;2023-04-23T03:55:33;100603.00;;;19.47;51.83
11395;BME280;5753;54.402;10.220;2023-04-23T03:57:59;100608.69;;;20.30;50.52
11395;BME280;5753;54.402;10.220;2023-04-23T04:00:28;100620.84;;;20.01;50.54
11395;BME280;5753;54.402;10.220;2023-04-23T04:02:54;100611.31;;;20.62;48.41
11395;BME280;5753;54.402;10.220;2023-04-23T04:05:21;100613.16;;;20.26;49.01
11395;BME280;5753;54.402;10.220;2023-04-23T04:07:47;100606.00;;;19.31;50.54
11395;BME280;5753;54.402;10.220;2023-04-23T04:10:13;100606.72;;;19.37;51.37
11395;BME280;5753;54.402;10.220;2023-04-23T04:12:39;100607.56;;;19.39;50.45
11395;BME280;5753;54.402;10.220;2023-04-23T04:15:07;100601.31;;;19.08;51.14
11395;BME280;5753;54.402;10.220;2023-04-23T04:17:33;100604.22;;;20.35;48.61
11395;BME280;5753;54.402;10.220;2023-04-23T04:19:59;100604.78;;;19.45;49.79
11395;BME280;5753;54.402;10.220;2023-04-23T04:22:25;100612.56;;;19.48;49.45
11395;BME280;5753;54.402;10.220;2023-04-23T04:24:51;100611.84;;;20.11;48.34
11395;BME280;5753;54.402;10.220;2023-04-23T04:27:18;100618.28;;;20.31;47.76
11395;BME280;5753;54.402;10.220;2023-04-23T04:29:44;100620.47;;;20.77;46.47
11395;BME280;5753;54.402;10.220;2023-04-23T04:32:10;100619.25;;;20.59;47.08
11395;BME280;5753;54.402;10.220;2023-04-23T04:34:38;100617.78;;;20.79;46.72
11395;BME280;5753;54.402;10.220;2023-04-23T04:37:05;100624.09;;;20.09;47.42
11395;BME280;5753;54.402;10.220;2023-04-23T04:39:31;100624.94;;;20.44;47.49
11395;BME280;5753;54.402;10.220;2023-04-23T04:41:57;100623.13;;;20.46;46.51
11395;BME280;5753;54.402;10.220;2023-04-23T04:44:24;100631.69;;;20.19;47.18
11395;BME280;5753;54.402;10.220;2023-04-23T04:46:50;100618.13;;;20.97;46.05
11395;BME280;5753;54.402;10.220;2023-04-23T04:49:17;100627.06;;;21.48;45.00
11395;BME280;5753;54.402;10.220;2023-04-23T04:51:44;100621.28;;;21.63;44.22
11395;BME280;5753;54.402;10.220;2023-04-23T04:54:10;100618.56;;;20.53;46.24
11395;BME280;5753;54.402;10.220;2023-04-23T04:56:37;100621.13;;;20.85;45.17
11395;BME280;5753;54.402;10.220;2023-04-23T04:59:03;100627.34;;;20.52;45.84
11395;BME280;5753;54.402;10.220;2023-04-23T05:01:29;100618.16;;;20.96;45.37
11395;BME280;5753;54.402;10.220;2023-04-23T05:03:57;100633.69;;;20.43;45.65
11395;BME280;5753;54.402;10.220;2023-04-23T05:06:23;100643.16;;;20.15;45.89
11395;BME280;5753;54.402;10.220;2023-04-23T05:08:50;100628.69;;;20.65;45.57
11395;BME280;5753;54.402;10.220;2023-04-23T05:11:19;100634.91;;;20.92;44.46
11395;BME280;5753;54.402;10.220;2023-04-23T05:13:46;100636.44;;;20.04;45.76
11395;BME280;5753;54.402;10.220;2023-04-23T05:16:13;100640.78;;;20.69;44.95
11395;BME280;5753;54.402;10.220;2023-04-23T05:18:39;100638.19;;;20.98;44.20
11395;BME280;5753;54.402;10.220;2023-04-23T05:21:06;100637.66;;;20.56;45.08
11395;BME280;5753;54.402;10.220;2023-04-23T05:23:33;100645.66;;;20.52;45.10
11395;BME280;5753;54.402;10.220;2023-04-23T05:26:00;100646.97;;;20.66;44.49
11395;BME280;5753;54.402;10.220;2023-04-23T05:28:29;100662.63;;;19.30;47.77
11395;BME280;5753;54.402;10.220;2023-04-23T05:30:56;100656.22;;;20.49;45.53
11395;BME280;5753;54.402;10.220;2023-04-23T05:33:23;100656.09;;;19.87;46.15
11395;BME280;5753;54.402;10.220;2023-04-23T05:35:50;100661.41;;;19.08;48.77
11395;BME280;5753;54.402;10.220;2023-04-23T05:38:17;100661.13;;;19.94;46.63
11395;BME280;5753;54.402;10.220;2023-04-23T05:40:43;100663.44;;;19.71;47.18
11395;BME280;5753;54.402;10.220;2023-04-23T05:43:09;100668.19;;;19.55;47.21
11395;BME280;5753;54.402;10.220;2023-04-23T05:45:35;100675.75;;;20.68;44.86
11395;BME280;5753;54.402;10.220;2023-04-23T05:48:01;100677.03;;;20.53;45.34
11395;BME280;5753;54.402;10.220;2023-04-23T05:50:27;100672.00;;;21.06;44.33
11395;BME280;5753;54.402;10.220;2023-04-23T05:52:53;100679.69;;;20.52;44.84
11395;BME280;5753;54.402;10.220;2023-04-23T05:55:20;100684.16;;;20.14;45.23
11395;BME280;5753;54.402;10.220;2023-04-23T05:57:46;100678.31;;;19.30;47.63
11395;BME280;5753;54.402;10.220;2023-04-23T06:00:12;100690.06;;;19.51;46.38
11395;BME280;5753;54.402;10.220;2023-04-23T06:02:39;100685.19;;;20.08;45.81
11395;BME280;5753;54.402;10.220;2023-04-23T06:05:06;100680.03;;;20.70;44.25
11395;BME280;5753;54.402;10.220;2023-04-23T06:07:33;100686.69;;;20.51;44.58
11395;BME280;5753;54.402;10.220;2023-04-23T06:09:59;100683.25;;;20.49;44.76
11395;BME280;5753;54.402;10.220;2023-04-23T06:12:25;100689.47;;;20.76;44.32
11395;BME280;5753;54.402;10.220;2023-04-23T06:14:54;100682.63;;;20.41;45.05
11395;BME280;5753;54.402;10.220;2023-04-23T06:17:20;100686.56;;;19.89;45.48
11395;BME280;5753;54.402;10.220;2023-04-23T06:19:46;100688.94;;;19.98;46.09
11395;BME280;5753;54.402;10.220;2023-04-23T06:22:12;100689.72;;;20.02;44.84
11395;BME280;5753;54.402;10.220;2023-04-23T06:24:38;100685.63;;;20.58;44.23
11395;BME280;5753;54.402;10.220;2023-04-23T06:27:04;100683.75;;;19.61;45.06
11395;BME280;5753;54.402;10.220;2023-04-23T06:29:31;100693.06;;;20.07;43.75
11395;BME280;5753;54.402;10.220;2023-04-23T06:32:00;100696.59;;;19.70;44.43
11395;BME280;5753;54.402;10.220;2023-04-23T06:34:26;100689.59;;;19.71;44.26
11395;BME280;5753;54.402;10.220;2023-04-23T06:36:54;100687.81;;;19.73;44.42
11395;BME280;5753;54.402;10.220;2023-04-23T06:39:20;100699.00;;;20.13;43.30
11395;BME280;5753;54.402;10.220;2023-04-23T06:41:46;100691.13;;;19.79;43.65
11395;BME280;5753;54.402;10.220;2023-04-23T06:44:12;100684.53;;;19.65;43.44
11395;BME280;5753;54.402;10.220;2023-04-23T06:46:38;100697.44;;;20.06;42.97
11395;BME280;5753;54.402;10.220;2023-04-23T06:49:05;100695.50;;;19.79;43.08
11395;BME280;5753;54.402;10.220;2023-04-23T06:51:31;100693.81;;;19.38;43.17
11395;BME280;5753;54.402;10.220;2023-04-23T06:53:57;100691.78;;;19.89;42.28
11395;BME280;5753;54.402;10.220;2023-04-23T06:56:23;100699.84;;;19.03;43.67
11395;BME280;5753;54.402;10.220;2023-04-23T06:58:51;100705.13;;;18.55;44.58
11395;BME280;5753;54.402;10.220;2023-04-23T07:01:18;100700.97;;;17.94;45.52
11395;BME280;5753;54.402;10.220;2023-04-23T07:03:44;100693.19;;;18.86;43.82
11395;BME280;5753;54.402;10.220;2023-04-23T07:06:14;100703.69;;;18.83;43.57
11395;BME280;5753;54.402;10.220;2023-04-23T07:08:41;100698.25;;;19.34;42.71
11395;BME280;5753;54.402;10.220;2023-04-23T07:11:07;100691.16;;;19.78;42.05
11395;BME280;5753;54.402;10.220;2023-04-23T07:13:35;100691.22;;;19.76;41.76
11395;BME280;5753;54.402;10.220;2023-04-23T07:16:01;100694.88;;;20.70;40.17
11395;BME280;5753;54.402;10.220;2023-04-23T07:18:27;100698.47;;;20.01;41.11
11395;BME280;5753;54.402;10.220;2023-04-23T07:20:53;100700.09;;;20.05;41.59
11395;BME280;5753;54.402;10.220;2023-04-23T07:23:20;100691.63;;;19.95;41.77
11395;BME280;5753;54.402;10.220;2023-04-23T07:25:46;100691.28;;;20.43;41.12
11395;BME280;5753;54.402;10.220;2023-04-23T07:28:12;100690.56;;;21.29;39.66
11395;BME280;5753;54.402;10.220;2023-04-23T07:30:38;100687.84;;;21.87;38.36
11395;BME280;5753;54.402;10.220;2023-04-23T07:33:04;100695.31;;;22.50;37.73
11395;BME280;5753;54.402;10.220;2023-04-23T07:35:30;100694.06;;;21.30;38.95
11395;BME280;5753;54.402;10.220;2023-04-23T07:37:56;100692.09;;;21.36;38.76
11395;BME280;5753;54.402;10.220;2023-04-23T07:40:23;100693.03;;;21.62;38.62
11395;BME280;5753;54.402;10.220;2023-04-23T07:42:50;100703.66;;;22.12;38.34
11395;BME280;5753;54.402;10.220;2023-04-23T07:45:17;100701.50;;;20.52;39.97
11395;BME280;5753;54.402;10.220;2023-04-23T07:47:43;100702.03;;;21.81;38.64
11395;BME280;5753;54.402;10.220;2023-04-23T07:50:11;100693.38;;;21.79;38.15
11395;BME280;5753;54.402;10.220;2023-04-23T07:52:37;100697.47;;;22.39;37.36
11395;BME280;5753;54.402;10.220;2023-04-23T07:55:05;100710.97;;;22.53;37.09
11395;BME280;5753;54.402;10.220;2023-04-23T07:57:31;100699.19;;;21.61;38.18
11395;BME280;5753;54.402;10.220;2023-04-23T07:59:57;100701.13;;;22.35;36.92
11395;BME280;5753;54.402;10.220;2023-04-23T08:02:23;100698.56;;;21.81;38.45
11395;BME280;5753;54.402;10.220;2023-04-23T08:04:51;100694.97;;;22.10;37.86
11395;BME280;5753;54.402;10.220;2023-04-23T08:07:18;100699.81;;;22.72;37.12
11395;BME280;5753;54.402;10.220;2023-04-23T08:09:44;100696.81;;;22.08;37.67
11395;BME280;5753;54.402;10.220;2023-04-23T08:12:11;100708.50;;;22.74;36.98
11395;BME280;5753;54.402;10.220;2023-04-23T08:14:37;100701.88;;;21.86;38.05
11395;BME280;5753;54.402;10.220;2023-04-23T08:17:03;100704.13;;;23.43;36.49
11395;BME280;5753;54.402;10.220;2023-04-23T08:19:29;100699.69;;;21.72;37.44
11395;BME280;5753;54.402;10.220;2023-04-23T08:21:58;100702.19;;;22.29;37.25
11395;BME280;5753;54.402;10.220;2023-04-23T08:24:25;100694.38;;;22.28;36.52
11395;BME280;5753;54.402;10.220;2023-04-23T08:26:52;100694.19;;;22.82;36.51
11395;BME280;5753;54.402;10.220;2023-04-23T08:29:18;100696.72;;;23.76;34.84
11395;BME280;5753;54.402;10.220;2023-04-23T08:31:44;100688.91;;;21.81;37.38
11395;BME280;5753;54.402;10.220;2023-04-23T08:34:10;100692.25;;;22.62;35.73
11395;BME280;5753;54.402;10.220;2023-04-23T08:36:36;100689.72;;;22.84;34.72
11395;BME280;5753;54.402;10.220;2023-04-23T08:39:03;100688.78;;;22.12;35.26
11395;BME280;5753;54.402;10.220;2023-04-23T08:41:35;100688.88;;;22.84;34.68
11395;BME280;5753;54.402;10.220;2023-04-23T08:44:22;100682.00;;;23.27;34.18
11395;BME280;5753;54.402;10.220;2023-04-23T08:46:49;100688.97;;;23.49;33.52
11395;BME280;5753;54.402;10.220;2023-04-23T08:49:18;100690.88;;;23.90;33.41
11395;BME280;5753;54.402;10.220;2023-04-23T08:51:54;100690.22;;;23.17;33.33
11395;BME280;5753;54.402;10.220;2023-04-23T08:54:27;100694.19;;;24.15;32.58
11395;BME280;5753;54.402;10.220;2023-04-23T08:56:55;100696.84;;;23.28;33.51
11395;BME280;5753;54.402;10.220;2023-04-23T08:59:25;100687.56;;;23.19;33.05
11395;BME280;5753;54.402;10.220;2023-04-23T09:01:54;100695.09;;;22.56;34.06
11395;BME280;5753;54.402;10.220;2023-04-23T09:04:22;100697.75;;;22.32;33.80
11395;BME280;5753;54.402;10.220;2023-04-23T09:06:50;100694.50;;;22.48;34.25
11395;BME280;5753;54.402;10.220;2023-04-23T09:09:16;100697.03;;;23.45;33.23
11395;BME280;5753;54.402;10.220;2023-04-23T09:11:43;100693.44;;;25.30;31.50
11395;BME280;5753;54.402;10.220;2023-04-23T09:14:10;100687.66;;;25.77;31.03
11395;BME280;5753;54.402;10.220;2023-04-23T09:16:37;100691.44;;;24.98;31.34
11395;BME280;5753;54.402;10.220;2023-04-23T09:19:07;100697.13;;;24.29;32.52
11395;BME280;5753;54.402;10.220;2023-04-23T09:21:35;100698.03;;;24.48;32.21
11395;BME280;5753;54.402;10.220;2023-04-23T09:24:04;100695.38;;;24.88;31.06
11395;BME280;5753;54.402;10.220;2023-04-23T09:26:31;100686.81;;;24.64;30.79
11395;BME280;5753;54.402;10.220;2023-04-23T09:28:57;100694.72;;;24.43;30.83
11395;BME280;5753;54.402;10.220;2023-04-23T09:31:23;100693.75;;;24.46;31.36
11395;BME280;5753;54.402;10.220;2023-04-23T09:33:51;100692.88;;;26.30;30.07
11395;BME280;5753;54.402;10.220;2023-04-23T09:36:20;100686.59;;;25.07;31.58
11395;BME280;5753;54.402;10.220;2023-04-23T09:38:48;100685.00;;;25.41;30.67
11395;BME280;5753;54.402;10.220;2023-04-23T09:41:25;100686.72;;;26.64;29.79
11395;BME280;5753;54.402;10.220;2023-04-23T09:43:55;100687.59;;;25.24;31.67
11395;BME280;5753;54.402;10.220;2023-04-23T09:46:39;100686.97;;;26.25;30.40
11395;BME280;5753;54.402;10.220;2023-04-23T09:49:06;100690.38;;;24.63;32.39
11395;BME280;5753;54.402;10.220;2023-04-23T09:51:38;100686.25;;;25.70;30.98
11395;BME280;5753;54.402;10.220;2023-04-23T09:54:10;100693.97;;;25.37;31.12
11395;BME280;5753;54.402;10.220;2023-04-23T09:56:37;100683.09;;;25.81;30.21
11395;BME280;5753;54.402;10.220;2023-04-23T09:59:22;100681.00;;;24.95;31.95
11395;BME280;5753;54.402;10.220;2023-04-23T10:01:49;100684.03;;;25.25;31.79
11395;BME280;5753;54.402;10.220;2023-04-23T10:04:19;100685.72;;;25.98;30.15
11395;BME280;5753;54.402;10.220;2023-04-23T10:06:54;100684.69;;;24.52;32.16
11395;BME280;5753;54.402;10.220;2023-04-23T10:09:24;100682.94;;;25.29;31.38
11395;BME280;5753;54.402;10.220;2023-04-23T10:11:55;100679.22;;;24.95;31.08
11395;BME280;5753;54.402;10.220;2023-04-23T10:14:22;100677.34;;;26.07;30.22
11395;BME280;5753;54.402;10.220;2023-04-23T10:17:02;100675.84;;;24.73;31.79
11395;BME280;5753;54.402;10.220;2023-04-23T10:19:29;100675.50;;;26.09;29.93
11395;BME280;5753;54.402;10.220;2023-04-23T10:22:03;100677.81;;;26.50;29.82
11395;BME280;5753;54.402;10.220;2023-04-23T10:24:36;100675.09;;;27.32;28.43
11395;BME280;5753;54.402;10.220;2023-04-23T10:27:04;100679.44;;;26.00;29.08
11395;BME280;5753;54.402;10.220;2023-04-23T10:29:34;100679.03;;;26.25;29.10
11395;BME280;5753;54.402;10.220;2023-04-23T10:32:04;100675.63;;;25.71;29.52
11395;BME280;5753;54.402;10.220;2023-04-23T10:34:32;100676.06;;;26.82;27.89
11395;BME280;5753;54.402;10.220;2023-04-23T10:37:00;100673.16;;;26.03;28.63
11395;BME280;5753;54.402;10.220;2023-04-23T10:39:33;100671.44;;;25.67;29.76
11395;BME280;5753;54.402;10.220;2023-04-23T10:42:01;100673.84;;;25.89;29.40
11395;BME280;5753;54.402;10.220;2023-04-23T10:44:37;100673.00;;;26.06;29.34
11395;BME280;5753;54.402;10.220;2023-04-23T10:47:05;100674.28;;;26.82;27.96
11395;BME280;5753;54.402;10.220;2023-04-23T10:49:33;100661.72;;;26.37;28.84
11395;BME280;5753;54.402;10.220;2023-04-23T10:54:31;100673.31;;;26.52;28.73
11395;BME280;5753;54.402;10.220;2023-04-23T10:57:03;100662.19;;;27.73;27.51
11395;BME280;5753;54.402;10.220;2023-04-23T10:59:31;100666.13;;;27.34;27.79
11395;BME280;5753;54.402;10.220;2023-04-23T11:02:11;100650.28;;;27.18;27.44
11395;BME280;5753;54.402;10.220;2023-04-23T11:04:53;100654.81;;;25.83;28.58
11395;BME280;5753;54.402;10.220;2023-04-23T11:07:20;100644.09;;;25.86;28.44
11395;BME280;5753;54.402;10.220;2023-04-23T11:09:50;100648.78;;;25.26;30.09
11395;BME280;5753;54.402;10.220;2023-04-23T11:14:51;100650.03;;;27.07;28.00
11395;BME280;5753;54.402;10.220;2023-04-23T11:20:21;100654.31;;;26.92;27.36
11395;BME280;5753;54.402;10.220;2023-04-23T11:22:50;100649.97;;;26.25;27.79
11395;BME280;5753;54.402;10.220;2023-04-23T11:25:25;100653.25;;;25.79;28.31
11395;BME280;5753;54.402;10.220;2023-04-23T11:27:53;100652.69;;;26.41;28.51
11395;BME280;5753;54.402;10.220;2023-04-23T11:30:22;100645.63;;;27.38;26.53
11395;BME280;5753;54.402;10.220;2023-04-23T11:32:50;100651.13;;;27.19;27.34
11395;BME280;5753;54.402;10.220;2023-04-23T11:35:18;100647.81;;;27.00;27.14
11395;BME280;5753;54.402;10.220;2023-04-23T11:37:46;100636.25;;;27.48;26.60
11395;BME280;5753;54.402;10.220;2023-04-23T11:40:14;100646.50;;;27.84;27.12
11395;BME280;5753;54.402;10.220;2023-04-23T11:42:49;100641.97;;;27.86;25.88
11395;BME280;5753;54.402;10.220;2023-04-23T11:45:16;100642.56;;;28.35;25.55
11395;BME280;5753;54.402;10.220;2023-04-23T11:47:44;100637.34;;;28.34;25.94
11395;BME280;5753;54.402;10.220;2023-04-23T11:50:17;100642.66;;;28.62;25.35
11395;BME280;5753;54.402;10.220;2023-04-23T11:52:44;100636.19;;;28.80;24.37
11395;BME280;5753;54.402;10.220;2023-04-23T11:55:11;100643.19;;;28.81;25.69
11395;BME280;5753;54.402;10.220;2023-04-23T11:57:42;100638.13;;;29.20;25.04
11395;BME280;5753;54.402;10.220;2023-04-23T12:00:20;100637.50;;;28.02;25.00
11395;BME280;5753;54.402;10.220;2023-04-23T12:05:22;100629.53;;;29.16;23.89
11395;BME280;5753;54.402;10.220;2023-04-23T12:07:52;100640.97;;;28.90;24.66
11395;BME280;5753;54.402;10.220;2023-04-23T12:10:19;100640.00;;;28.76;23.96
11395;BME280;5753;54.402;10.220;2023-04-23T12:12:52;100642.84;;;28.59;24.08
11395;BME280;5753;54.402;10.220;2023-04-23T12:15:19;100650.94;;;29.81;23.48
11395;BME280;5753;54.402;10.220;2023-04-23T12:17:49;100642.50;;;30.39;22.59
11395;BME280;5753;54.402;10.220;2023-04-23T12:20:22;100646.75;;;31.41;20.96
11395;BME280;5753;54.402;10.220;2023-04-23T12:22:48;100651.84;;;32.71;20.03
11395;BME280;5753;54.402;10.220;2023-04-23T12:25:14;100644.41;;;32.64;19.90
11395;BME280;5753;54.402;10.220;2023-04-23T12:27:43;100651.91;;;34.31;18.51
11395;BME280;5753;54.402;10.220;2023-04-23T12:30:10;100645.91;;;32.90;19.14
11395;BME280;5753;54.402;10.220;2023-04-23T12:32:37;100651.16;;;33.35;19.30
11395;BME280;5753;54.402;10.220;2023-04-23T12:35:03;100651.38;;;34.37;18.48
11395;BME280;5753;54.402;10.220;2023-04-23T12:37:35;100640.47;;;35.50;17.34
11395;BME280;5753;54.402;10.220;2023-04-23T12:40:03;100641.56;;;36.05;17.50
11395;BME280;5753;54.402;10.220;2023-04-23T12:42:32;100647.56;;;36.26;17.44
11395;BME280;5753;54.402;10.220;2023-04-23T12:45:06;100641.56;;;34.78;17.97
11395;BME280;5753;54.402;10.220;2023-04-23T12:47:32;100631.94;;;35.06;18.06
11395;BME280;5753;54.402;10.220;2023-04-23T12:49:58;100629.75;;;35.59;17.00
11395;BME280;5753;54.402;10.220;2023-04-23T12:52:26;100631.94;;;36.12;16.92
11395;BME280;5753;54.402;10.220;2023-04-23T12:54:53;100620.78;;;36.07;17.13
11395;BME280;5753;54.402;10.220;2023-04-23T12:57:21;100618.72;;;38.18;15.90
11395;BME280;5753;54.402;10.220;2023-04-23T12:59:47;100613.75;;;39.15;14.48
11395;BME280;5753;54.402;10.220;2023-04-23T13:02:14;100615.31;;;39.58;14.17